Photometre #394[NE_1.6] Lille AOT

File : 20220825_394.hum

25/08/2022,05:48:11,TEMP=19.5,BA=5.64,STAT.A=9.0,ExtBa=12.99
25/08/2022,05:52:13,TEMP=19.7,BA=5.64,STAT.A=9.0,ExtBa=12.99
25/08/2022,05:56:56,TEMP=19.7,BA=5.64,STAT.A=9.0,ExtBa=12.99
25/08/2022,06:02:32,TEMP=19.8,BA=5.64,STAT.A=9.0,ExtBa=12.99
25/08/2022,06:09:14,TEMP=19.9,BA=5.64,STAT.A=9.0,ExtBa=12.99
25/08/2022,06:17:27,TEMP=20.2,BA=5.60,STAT.A=9.5,ExtBa=12.99
25/08/2022,06:27:48,TEMP=20.6,BA=5.64,STAT.B=9.5,ExtBa=12.99
25/08/2022,06:37:12,TEMP=21.3,BA=5.60,STAT.A=9.0,ExtBa=12.72
25/08/2022,06:39:07,TEMP=21.5,BA=5.60,STAT.A=9.0,ExtBa=12.76
25/08/2022,06:44:22,TEMP=21.8,BA=5.60,STAT.A=9.5,ExtBa=12.90
25/08/2022,06:51:21,TEMP=22.5,BA=5.64,STAT.A=9.5,ExtBa=12.98
25/08/2022,06:59:20,TEMP=23.3,BA=5.64,STAT.C=9.5,ExtBa=13.03
25/08/2022,07:13:24,TEMP=25.0,BA=5.56,STAT.A=9.5,ExtBa=12.69
25/08/2022,07:19:24,TEMP=25.1,BA=5.56,STAT.A=9.5,ExtBa=12.87
25/08/2022,07:32:19,TEMP=26.0,BA=5.64,STAT.A=9.5,ExtBa=13.04
25/08/2022,07:48:02,TEMP=27.5,BA=5.64,STAT.A=10.0,ExtBa=13.11
25/08/2022,08:07:45,TEMP=28.7,BA=5.64,STAT.B=10.0,ExtBa=13.14
25/08/2022,08:50:00,TEMP=31.6,BA=5.64,STAT.B=10.0,ExtBa=13.14
25/08/2022,08:58:39,TEMP=32.0,BA=5.60,STAT.F,ExtBa=12.74
25/08/2022,09:12:13,TEMP=32.2,BA=5.52,STAT.D=10.0,ExtBa=12.69
25/08/2022,09:20:14,TEMP=32.9,BA=5.60,STAT.D=10.0,ExtBa=12.92
25/08/2022,09:35:14,TEMP=34.1,BA=5.60,STAT.D=10.0,ExtBa=13.06
25/08/2022,09:50:16,TEMP=33.0,BA=5.60,STAT.F,ExtBa=13.09
25/08/2022,10:08:55,TEMP=31.7,BA=5.52,STAT.D=10.0,ExtBa=12.88
25/08/2022,10:20:14,TEMP=31.4,BA=5.60,STAT.D=10.0,ExtBa=13.00
25/08/2022,10:35:14,TEMP=30.7,BA=5.60,STAT.D=10.0,ExtBa=13.06
25/08/2022,10:50:16,TEMP=31.2,BA=5.60,STAT.F,ExtBa=13.08
25/08/2022,11:05:14,TEMP=31.8,BA=5.52,STAT.D=10.0,ExtBa=12.79
25/08/2022,11:20:15,TEMP=31.6,BA=5.60,STAT.D=10.0,ExtBa=13.01
25/08/2022,11:35:15,TEMP=31.1,BA=5.60,STAT.D=10.0,ExtBa=13.07
25/08/2022,11:50:16,TEMP=31.4,BA=5.60,STAT.F,ExtBa=13.08
25/08/2022,12:05:14,TEMP=31.4,BA=5.52,STAT.D=10.0,ExtBa=12.81
25/08/2022,12:20:14,TEMP=31.2,BA=5.56,STAT.D=10.0,ExtBa=13.01
25/08/2022,12:35:14,TEMP=30.9,BA=5.60,STAT.D=10.0,ExtBa=13.07
25/08/2022,12:50:16,TEMP=30.8,BA=5.56,STAT.F,ExtBa=13.08
25/08/2022,13:05:14,TEMP=30.6,BA=5.48,STAT.D=10.0,ExtBa=12.80
25/08/2022,13:20:14,TEMP=29.7,BA=5.56,STAT.D=10.0,ExtBa=13.01
25/08/2022,13:35:14,TEMP=29.3,BA=5.60,STAT.D=10.0,ExtBa=13.06
25/08/2022,13:50:16,TEMP=29.0,BA=5.56,STAT.F,ExtBa=13.08
25/08/2022,14:05:14,TEMP=28.7,BA=5.48,STAT.D=9.5,ExtBa=12.77
25/08/2022,14:20:14,TEMP=27.2,BA=5.56,STAT.D=10.0,ExtBa=13.00
25/08/2022,14:35:14,TEMP=26.4,BA=5.60,STAT.D=10.0,ExtBa=13.06
25/08/2022,14:50:15,TEMP=27.4,BA=5.60,STAT.F,ExtBa=13.08
25/08/2022,15:04:14,TEMP=28.9,BA=5.48,STAT.B=9.5,ExtBa=12.72
25/08/2022,15:32:45,TEMP=26.5,BA=5.60,STAT.B=9.5,ExtBa=13.02
25/08/2022,15:52:28,TEMP=25.9,BA=5.60,STAT.A=9.5,ExtBa=13.08
25/08/2022,16:08:11,TEMP=25.8,BA=5.60,STAT.A=9.5,ExtBa=13.10
25/08/2022,16:21:06,TEMP=25.4,BA=5.60,STAT.A=9.5,ExtBa=13.11
25/08/2022,16:31:55,TEMP=25.4,BA=5.60,STAT.A=9.5,ExtBa=13.11
25/08/2022,16:41:10,TEMP=25.2,BA=5.60,STAT.C=9.5,ExtBa=13.11
25/08/2022,16:49:09,TEMP=25.1,BA=5.60,STAT.A=9.5,ExtBa=13.11
25/08/2022,17:00:00,TEMP=24.9,BA=5.56,STAT.A=9.5,ExtBa=13.12
25/08/2022,17:02:18,TEMP=25.1,BA=5.56,STAT.A=9.5,ExtBa=13.08
25/08/2022,17:07:47,TEMP=24.9,BA=5.56,STAT.A=9.5,ExtBa=13.09
25/08/2022,17:12:42,TEMP=24.8,BA=5.60,STAT.B=9.5,ExtBa=13.08
25/08/2022,17:23:01,TEMP=24.4,BA=5.64,STAT.A=9.5,ExtBa=13.11
25/08/2022,17:31:14,TEMP=24.2,BA=5.64,STAT.A=9.5,ExtBa=13.12
25/08/2022,17:37:56,TEMP=24.0,BA=5.64,STAT.A=9.5,ExtBa=13.11
25/08/2022,17:43:32,TEMP=23.8,BA=5.64,STAT.A=9.5,ExtBa=13.10
25/08/2022,17:48:15,TEMP=23.7,BA=5.64,STAT.A=9.5,ExtBa=13.09
25/08/2022,17:52:17,TEMP=23.6,BA=5.60,STAT.A=9.5,ExtBa=13.08